LATI Airport Information

Runway Information
Runway 18 Length 8971 ft width 148 ft
Elevation 109 ft Threshold 0 ft Heading 174
Runway 36 Length 8971 ft Width 148 ft
Elevation 126 ft Threshold 0 ft Heading 354
Airport Frequencies
Type ACC Name ACC Frequency 127.5 MHZ
Type APP Name APP Frequency 133.15 MHZ
Type TWR Name TWR Frequency 122.5 MHZ
Airport Navaids
Type NDB Name Tirana Frequency 290 KHZ
Type VOR-DME Name Tirana Frequency 117700 KHZ
Airport Weather Information & NOTAM
ADDS - METARS form results

(0855 UTC 21 April 2019)
Data provider http://aviationweather.gov/metar/data/
 
METAR text: LATI 210850Z VRB04KT CAVOK 20/02 Q1024 NOSIG
Conditions at: LATI (TIRANA , AL) observed 0850 UTC 21 April 2019
Temperature: 20.0°C (68°F)
Dewpoint: 2.0°C (36°F) [RH = 30%]
Pressure (altimeter): 30.24 inches Hg (1024.0 mb)
Winds: variable direction winds at 5 MPH (4 knots; 2.1 m/s)
Visibility: 6 or more miles (10+ km)
Ceiling: ceiling and visibility are OK
Clouds: unknown
Weather: no significant weather observed at this time

METAR text: LATI 210820Z VRB01KT CAVOK 19/03 Q1024 NOSIG
Conditions at: LATI (TIRANA , AL) observed 0820 UTC 21 April 2019
Temperature: 19.0°C (66°F)
Dewpoint: 3.0°C (37°F) [RH = 34%]
Pressure (altimeter): 30.24 inches Hg (1024.0 mb)
Winds: variable direction winds at 1 MPH (1 knots; 0.5 m/s)
Visibility: 6 or more miles (10+ km)
Ceiling: ceiling and visibility are OK
Clouds: unknown
Weather: no significant weather observed at this time

Forecast for: LATI (TIRANA , AL)
Text: TAF LATI 210500Z 2106/2206 VRB03KT CAVOK
Forecast period: 0600 UTC 21 April 2019 to 0600 UTC 22 April 2019
Forecast type: FROM: standard forecast or significant change
Winds: variable direction winds at 3 MPH (3 knots; 1.5 m/s)
Visibility: 6 or more miles 10+ km)
Ceiling: unknown
Clouds: missing
Weather: NSW  (no significant weather)
Text: TEMPO 2110/2117 22012KT FEW030TCU
Forecast period: 1000 to 1700 UTC 21 April 2019
Forecast type: TEMPORARY: The following changes expected for less than half the time period
Winds: from the SW (220 degrees) at 14 MPH (12 knots; 6.2 m/s)
Visibility: missing
Ceiling: at least 12,000 feet AGL
Clouds: few clouds at 3000 feet AGL
Weather: no significant weather forecast for this period
Text: TEMPO 2117/2122 -SHRA SCT030TCU BKN080
Forecast period: 1700 to 2200 UTC 21 April 2019
Forecast type: TEMPORARY: The following changes expected for less than half the time period
Visibility: missing
Ceiling: 8000 feet AGL
Clouds: scattered clouds at 3000 feet AGL
broken clouds at 8000 feet AGL
Weather: -SHRA  (light rain showers)
Text: TEMPO 2122/2206 SCT050 BKN120
Forecast period: 2200 UTC 21 April 2019 to 0600 UTC 22 April 2019
Forecast type: TEMPORARY: The following changes expected for less than half the time period
Visibility: missing
Ceiling: 12000 feet AGL
Clouds: scattered clouds at 5000 feet AGL
broken clouds at 12000 feet AGL
Weather: no significant weather forecast for this period